Time;durP1;ratioP1;P1;durP2;ratioP2;P2;SDS_P1;SDS_P2;PMS_P1;PMS_P2;Temp;Humidity;BMP_temperature;BMP_pressure;BME280_temperature;BME280_humidity;BME280_pressure;Samples;Min_cycle;Max_cycle;Signal;HPM_P1;HPM_P2
2023/10/19 00:01:58;;;;;;;37.67;19.52;;;;;;;4.99;100.00;99610.63;5094094;28;20045;-76
2023/10/19 00:04:25;;;;;;;35.50;18.48;;;;;;;4.82;100.00;99573.34;5075892;28;20088;-77
2023/10/19 00:06:55;;;;;;;32.30;16.40;;;;;;;5.13;100.00;99624.16;5058811;28;20020;-76
2023/10/19 00:09:20;;;;;;;36.45;18.50;;;;;;;5.07;100.00;99602.59;5093522;28;20058;-78
2023/10/19 00:11:50;;;;;;;39.42;19.00;;;;;;;5.13;100.00;99612.03;5093683;28;20023;-77
2023/10/19 00:14:21;;;;;;;39.63;17.10;;;;;;;5.10;100.00;99601.66;5075418;28;20106;-77
2023/10/19 00:16:59;;;;;;;42.80;17.77;;;;;;;5.03;100.00;99594.28;5093386;28;20028;-76
2023/10/19 00:19:30;;;;;;;35.10;16.95;;;;;;;5.08;100.00;99590.03;5075834;28;20501;-75
2023/10/19 00:22:08;;;;;;;34.85;18.00;;;;;;;5.12;100.00;99594.25;5075645;28;20036;-76
2023/10/19 00:24:34;;;;;;;35.72;17.85;;;;;;;4.87;100.00;99561.41;5093753;28;20055;-75
2023/10/19 00:27:35;;;;;;;37.42;17.95;;;;;;;5.10;100.00;99581.84;5093708;28;20516;-75
2023/10/19 00:30:05;;;;;;;38.88;19.13;;;;;;;5.02;100.00;99564.38;5089648;28;20036;-78
2023/10/19 00:32:40;;;;;;;41.35;18.17;;;;;;;5.01;100.00;99564.84;5075109;28;20032;-76
2023/10/19 00:35:26;;;;;;;37.03;17.52;;;;;;;5.09;100.00;99571.78;5093669;28;20035;-77
2023/10/19 00:40:58;;;;;;;42.75;17.98;;;;;;;5.07;100.00;99568.63;5079404;28;20034;-76
2023/10/19 00:43:46;;;;;;;37.20;17.88;;;;;;;5.05;100.00;99560.63;5077666;28;20024;-75
2023/10/19 00:46:21;;;;;;;40.15;18.25;;;;;;;4.84;100.00;99524.78;5095134;28;20035;-76
2023/10/19 00:48:56;;;;;;;32.45;17.90;;;;;;;5.02;100.00;99547.41;5076382;28;20113;-76
2023/10/19 00:54:31;;;;;;;37.50;16.33;;;;;;;5.02;100.00;99533.25;5094045;28;20028;-77
2023/10/19 00:57:02;;;;;;;39.08;18.65;;;;;;;5.01;100.00;99539.38;5077143;28;20595;-76
2023/10/19 00:59:42;;;;;;;36.40;17.60;;;;;;;4.88;100.00;99514.06;5094511;28;20031;-77
2023/10/19 01:02:28;;;;;;;36.75;16.48;;;;;;;4.97;100.00;99525.38;5094857;28;20476;-76
2023/10/19 01:05:06;;;;;;;36.53;16.25;;;;;;;4.85;100.00;99506.53;5093780;28;20027;-76
2023/10/19 01:07:38;;;;;;;31.27;17.17;;;;;;;4.91;100.00;99513.91;5075564;28;20024;-74
2023/10/19 01:10:20;;;;;;;37.20;18.48;;;;;;;4.88;100.00;99509.19;5075375;28;20433;-78
2023/10/19 01:13:00;;;;;;;32.33;15.07;;;;;;;4.77;100.00;99488.28;5077319;28;20031;-77
2023/10/19 01:15:36;;;;;;;35.05;16.63;;;;;;;4.74;100.00;99478.72;5092994;28;20023;-76
2023/10/19 01:18:22;;;;;;;31.15;16.30;;;;;;;4.60;100.00;99462.38;5092956;28;20042;-76
2023/10/19 01:20:55;;;;;;;31.63;16.67;;;;;;;4.65;100.00;99469.44;5058603;28;20032;-76
2023/10/19 01:23:35;;;;;;;31.85;15.43;;;;;;;4.38;100.00;99419.31;5093356;28;20036;-76
2023/10/19 01:26:07;;;;;;;43.25;16.27;;;;;;;4.74;100.00;99484.38;5075917;28;20020;-76
2023/10/19 01:28:48;;;;;;;31.15;16.10;;;;;;;4.73;100.00;99491.28;5093066;28;20047;-78
2023/10/19 01:33:57;;;;;;;37.72;17.17;;;;;;;4.40;100.00;99411.97;5094270;28;20414;-75
2023/10/19 01:38:53;;;;;;;30.50;16.05;;;;;;;4.73;100.00;99468.66;5078883;28;20041;-74
2023/10/19 01:41:20;;;;;;;37.53;16.85;;;;;;;4.73;100.00;99470.69;5078842;28;20032;-77
2023/10/19 01:43:50;;;;;;;31.75;15.77;;;;;;;4.71;100.00;99457.00;5078318;28;20031;-74
2023/10/19 01:46:37;;;;;;;32.85;16.05;;;;;;;4.71;100.00;99447.75;5062212;28;20039;-76
2023/10/19 01:49:04;;;;;;;35.25;17.67;;;;;;;4.67;100.00;99441.44;5095326;28;20093;-76
2023/10/19 01:51:38;;;;;;;34.03;16.60;;;;;;;4.61;100.00;99420.75;5077897;28;20024;-74
2023/10/19 01:54:05;;;;;;;35.90;16.13;;;;;;;4.42;100.00;99408.63;5078820;28;20032;-76
2023/10/19 01:56:35;;;;;;;29.50;15.52;;;;;;;4.53;100.00;99406.13;5095714;28;20549;-76
2023/10/19 01:59:18;;;;;;;31.83;14.38;;;;;;;4.68;100.00;99412.69;5095750;28;20024;-75
2023/10/19 02:01:45;;;;;;;32.83;16.48;;;;;;;4.50;100.00;99395.75;5096214;28;20036;-76
2023/10/19 02:04:14;;;;;;;32.33;15.73;;;;;;;4.56;100.00;99393.88;5095860;28;20020;-75
2023/10/19 02:06:46;;;;;;;36.95;17.45;;;;;;;4.55;100.00;99383.81;5096158;28;20024;-75
2023/10/19 02:11:56;;;;;;;32.40;15.35;;;;;;;4.68;100.00;99390.06;5079977;28;20040;-77
2023/10/19 02:14:23;;;;;;;31.83;16.17;;;;;;;4.69;100.00;99400.13;5077777;28;20046;-77
2023/10/19 02:16:53;;;;;;;29.35;15.68;;;;;;;4.59;100.00;99373.09;5095644;28;20498;-74
2023/10/19 02:19:20;;;;;;;30.35;16.40;;;;;;;4.69;100.00;99377.50;5078210;28;20066;-76
2023/10/19 02:21:52;;;;;;;36.08;15.30;;;;;;;4.33;100.00;99318.16;5095661;28;20090;-77
2023/10/19 02:24:25;;;;;;;39.72;15.90;;;;;;;4.65;100.00;99373.25;5095635;28;20020;-75
2023/10/19 02:26:54;;;;;;;37.30;15.82;;;;;;;4.68;100.00;99366.63;5096391;28;20031;-76
2023/10/19 02:29:21;;;;;;;33.47;16.60;;;;;;;4.63;100.00;99359.56;5098599;28;20468;-76
2023/10/19 02:31:49;;;;;;;30.90;16.15;;;;;;;4.68;100.00;99366.63;5080619;28;20050;-78
2023/10/19 02:34:15;;;;;;;38.22;16.75;;;;;;;4.63;100.00;99368.06;5080475;28;20032;-77
2023/10/19 02:36:42;;;;;;;33.30;17.27;;;;;;;4.67;100.00;99370.72;5097337;28;20077;-75
2023/10/19 02:39:13;;;;;;;43.45;17.65;;;;;;;4.39;100.00;99327.56;5096296;28;20089;-77
2023/10/19 02:41:43;;;;;;;33.45;15.35;;;;;;;4.60;100.00;99354.88;5078511;28;20077;-76
2023/10/19 02:46:48;;;;;;;30.42;15.60;;;;;;;4.46;100.00;99328.03;5077494;28;20032;-76
2023/10/19 02:49:18;;;;;;;30.90;15.43;;;;;;;4.58;100.00;99340.41;5096166;28;20016;-76
2023/10/19 02:52:06;;;;;;;38.08;16.90;;;;;;;4.29;100.00;99283.59;5079386;28;20077;-76
2023/10/19 02:54:39;;;;;;;36.72;16.38;;;;;;;4.56;100.00;99328.81;5095482;28;20438;-74
2023/10/19 02:57:09;;;;;;;60.58;19.75;;;;;;;4.40;100.00;99300.88;5068957;28;20041;-77
2023/10/19 02:59:35;;;;;;;42.90;18.38;;;;;;;4.49;100.00;99307.28;5073859;28;20032;-76
2023/10/19 03:02:08;;;;;;;32.90;18.25;;;;;;;4.71;100.00;99332.50;5075171;28;20039;-75
2023/10/19 03:04:36;;;;;;;37.70;17.23;;;;;;;4.60;100.00;99311.66;5074508;28;20062;-75
2023/10/19 03:07:07;;;;;;;41.97;18.73;;;;;;;4.46;100.00;99284.84;5073245;28;20056;-75
2023/10/19 03:09:36;;;;;;;33.60;16.45;;;;;;;4.69;100.00;99308.78;5073397;28;20036;-76
2023/10/19 03:12:14;;;;;;;41.35;19.27;;;;;;;4.56;100.00;99294.06;5056809;28;20028;-74
2023/10/19 03:14:47;;;;;;;30.77;17.20;;;;;;;4.67;100.00;99309.25;5057822;28;20040;-77
2023/10/19 03:17:30;;;;;;;46.90;19.27;;;;;;;4.60;100.00;99289.03;5070926;28;20405;-76
2023/10/19 03:19:55;;;;;;;48.15;19.45;;;;;;;4.33;100.00;99253.13;5073589;28;20051;-78
2023/10/19 03:22:24;;;;;;;38.03;19.50;;;;;;;4.62;100.00;99284.44;5072346;28;20439;-76
2023/10/19 03:24:59;;;;;;;40.65;20.92;;;;;;;4.63;100.00;99285.22;5074292;28;20391;-77
2023/10/19 03:27:24;;;;;;;37.70;19.48;;;;;;;4.70;100.00;99280.03;5072886;28;20028;-74
2023/10/19 03:29:55;;;;;;;39.67;20.73;;;;;;;4.72;100.00;99285.19;5071996;28;20044;-76
2023/10/19 03:32:28;;;;;;;38.35;19.00;;;;;;;4.57;100.00;99270.94;5056446;28;20040;-77
2023/10/19 03:35:22;;;;;;;41.10;20.45;;;;;;;4.76;100.00;99294.31;5070978;28;20051;-75
2023/10/19 03:37:51;;;;;;;41.85;19.98;;;;;;;4.76;100.00;99292.25;5056071;28;20107;-76
2023/10/19 03:40:25;;;;;;;46.78;20.60;;;;;;;4.78;100.00;99294.59;5071027;28;20043;-76
2023/10/19 03:42:54;;;;;;;46.28;20.98;;;;;;;4.76;100.00;99283.75;5074073;28;20052;-76
2023/10/19 03:45:23;;;;;;;35.40;19.05;;;;;;;4.78;100.00;99280.47;5072357;28;20028;-75
2023/10/19 03:47:55;;;;;;;49.30;21.75;;;;;;;4.83;100.00;99279.81;5073934;28;20028;-74
2023/10/19 03:50:23;;;;;;;44.08;21.98;;;;;;;4.86;100.00;99276.00;5073773;28;20043;-77
2023/10/19 03:52:50;;;;;;;41.35;19.90;;;;;;;4.88;100.00;99276.31;5074221;28;20028;-75
2023/10/19 03:55:19;;;;;;;41.10;21.63;;;;;;;4.93;100.00;99270.78;5072891;28;20040;-76
2023/10/19 03:57:59;;;;;;;41.80;19.88;;;;;;;4.98;100.00;99262.91;5085544;28;20051;-78
2023/10/19 04:00:26;;;;;;;42.72;21.55;;;;;;;5.01;100.00;99254.22;5075300;28;20085;-74
2023/10/19 04:02:58;;;;;;;45.00;22.02;;;;;;;5.05;100.00;99243.53;5093626;28;20182;-77
2023/10/19 04:05:25;;;;;;;42.63;20.67;;;;;;;5.00;100.00;99227.19;5075994;28;20404;-75
2023/10/19 04:07:54;;;;;;;44.03;21.20;;;;;;;5.09;100.00;99234.84;5076014;28;20077;-78
2023/10/19 04:11:32;;;;;;;39.08;21.80;;;;;;;5.12;100.00;99226.16;5093630;28;20093;-78
2023/10/19 04:13:18;;;;;;;38.13;19.48;;;;;;;5.18;100.00;99229.91;5070769;28;20028;-75
2023/10/19 04:15:45;;;;;;;39.53;20.23;;;;;;;5.28;100.00;99237.06;5075325;28;20039;-75
2023/10/19 04:18:10;;;;;;;39.13;19.80;;;;;;;5.28;100.00;99236.28;5093294;28;20107;-79
2023/10/19 04:23:39;;;;;;;45.95;20.77;;;;;;;5.30;100.00;99226.03;5076449;28;20077;-75
2023/10/19 04:26:13;;;;;;;47.20;22.23;;;;;;;5.34;100.00;99218.16;5092304;28;20051;-75
2023/10/19 04:28:49;;;;;;;43.08;20.70;;;;;;;5.40;100.00;99214.66;5093324;28;20024;-77
2023/10/19 04:31:17;;;;;;;39.95;19.85;;;;;;;5.42;100.00;99212.09;5092543;28;20028;-75
2023/10/19 04:33:45;;;;;;;41.08;21.25;;;;;;;5.32;100.00;99200.06;5058793;28;20477;-80
2023/10/19 04:36:13;;;;;;;39.90;19.65;;;;;;;5.49;100.00;99214.56;5075421;28;20111;-76
2023/10/19 04:38:43;;;;;;;46.63;18.90;;;;;;;5.55;100.00;99209.81;5093487;28;20035;-75
2023/10/19 04:41:11;;;;;;;38.30;19.08;;;;;;;5.58;100.00;99203.16;5075932;28;20032;-78
2023/10/19 04:43:39;;;;;;;42.38;18.77;;;;;;;5.58;100.00;99201.13;5073308;28;20032;-76
2023/10/19 04:46:11;;;;;;;39.15;20.80;;;;;;;5.62;100.00;99203.75;5075461;28;20027;-78
2023/10/19 04:48:39;;;;;;;40.22;19.58;;;;;;;5.58;100.00;99201.13;5075097;28;20039;-75
2023/10/19 04:51:07;;;;;;;40.08;19.83;;;;;;;5.66;100.00;99210.00;5042398;28;20032;-77
2023/10/19 04:53:35;;;;;;;44.33;19.50;;;;;;;5.63;100.00;99197.59;5042129;28;20034;-79
2023/10/19 04:56:08;;;;;;;40.22;20.30;;;;;;;5.63;100.00;99191.16;5056632;28;20035;-78
2023/10/19 04:58:35;;;;;;;37.90;20.10;;;;;;;5.51;100.00;99164.66;5042068;28;20071;-78
2023/10/19 05:01:03;;;;;;;37.10;20.55;;;;;;;5.62;100.00;99167.69;5058812;28;20107;-76
2023/10/19 05:03:31;;;;;;;43.85;21.17;;;;;;;5.73;100.00;99173.56;5075052;28;20229;-75
2023/10/19 05:05:57;;;;;;;44.05;20.83;;;;;;;5.74;100.00;99168.69;5058103;28;20020;-76
2023/10/19 05:08:27;;;;;;;40.90;19.80;;;;;;;5.64;100.00;99158.72;5092987;28;20035;-75
2023/10/19 05:10:55;;;;;;;51.17;21.83;;;;;;;5.76;100.00;99160.47;5097014;28;20321;-75
2023/10/19 05:13:25;;;;;;;47.08;20.60;;;;;;;5.81;100.00;99157.75;5095176;28;20137;-77
2023/10/19 05:15:54;;;;;;;38.92;19.40;;;;;;;5.70;100.00;99132.03;5078686;28;20068;-77
2023/10/19 05:18:41;;;;;;;43.83;22.23;;;;;;;5.87;100.00;99149.34;5078106;28;20115;-79
2023/10/19 05:21:08;;;;;;;44.30;22.58;;;;;;;5.73;100.00;99133.91;5094223;28;20024;-79
2023/10/19 05:23:35;;;;;;;41.55;21.45;;;;;;;5.77;100.00;99128.81;5096868;28;20028;-77
2023/10/19 05:26:06;;;;;;;44.83;22.35;;;;;;;5.94;100.00;99151.78;5078400;28;20036;-77
2023/10/19 05:28:36;;;;;;;42.75;22.08;;;;;;;5.95;100.00;99144.03;5097090;28;20031;-76
2023/10/19 05:31:04;;;;;;;42.63;22.88;;;;;;;5.68;100.00;99086.41;5078481;28;20035;-75
2023/10/19 05:33:30;;;;;;;43.28;21.73;;;;;;;5.97;100.00;99119.63;5078423;28;20052;-74
2023/10/19 05:35:56;;;;;;;40.83;20.23;;;;;;;5.94;100.00;99116.97;5096559;28;20024;-76
2023/10/19 05:38:27;;;;;;;36.10;18.70;;;;;;;6.02;100.00;99126.66;5078256;28;20081;-77
2023/10/19 05:40:52;;;;;;;40.60;19.83;;;;;;;6.08;100.00;99119.00;5096482;28;20380;-79
2023/10/19 05:43:17;;;;;;;41.67;21.08;;;;;;;5.95;100.00;99090.16;5061460;28;20528;-78
2023/10/19 05:45:45;;;;;;;45.38;21.17;;;;;;;6.09;100.00;99115.66;5096728;28;20081;-76
2023/10/19 05:48:11;;;;;;;48.85;21.55;;;;;;;5.92;100.00;99080.63;5045387;28;20032;-78
2023/10/19 05:50:37;;;;;;;47.95;20.88;;;;;;;6.17;100.00;99119.69;5097023;28;20024;-79
2023/10/19 05:53:05;;;;;;;41.20;22.00;;;;;;;5.90;100.00;99068.97;5096570;28;20031;-76
2023/10/19 05:55:34;;;;;;;39.75;20.38;;;;;;;5.95;100.00;99076.78;5061434;28;20027;-76
2023/10/19 05:58:00;;;;;;;49.33;22.58;;;;;;;6.09;100.00;99095.81;5077672;28;20059;-79
2023/10/19 06:00:25;;;;;;;37.38;20.15;;;;;;;6.22;100.00;99109.69;5094904;28;20051;-81
2023/10/19 06:02:53;;;;;;;43.42;23.38;;;;;;;6.23;100.00;99099.91;5079596;28;20027;-79
2023/10/19 06:05:19;;;;;;;40.53;21.13;;;;;;;6.40;100.00;99122.88;5077280;28;20279;-80
2023/10/19 06:07:49;;;;;;;37.15;19.25;;;;;;;6.44;100.00;99120.59;5077755;28;20040;-81
2023/10/19 06:10:20;;;;;;;43.83;19.75;;;;;;;6.47;100.00;99114.75;5077971;28;20040;-80
2023/10/19 06:12:49;;;;;;;43.27;21.80;;;;;;;6.20;100.00;99070.47;5078630;28;20028;-81
2023/10/19 06:15:24;;;;;;;40.85;21.08;;;;;;;6.52;100.00;99108.38;5090471;28;20365;-79
2023/10/19 06:17:52;;;;;;;44.25;20.60;;;;;;;6.53;100.00;99104.25;5060154;28;20028;-79
2023/10/19 06:20:24;;;;;;;39.30;19.15;;;;;;;6.64;100.00;99123.47;5076808;28;20105;-78
2023/10/19 06:23:03;;;;;;;41.53;20.38;;;;;;;6.73;100.00;99120.53;5078310;28;20020;-78
2023/10/19 06:25:38;;;;;;;37.00;18.83;;;;;;;6.81;100.00;99129.41;5078792;28;20047;-78
2023/10/19 06:28:11;;;;;;;37.92;20.48;;;;;;;6.85;100.00;99127.13;5059262;28;20035;-77
2023/10/19 06:30:37;;;;;;;42.47;20.25;;;;;;;6.88;100.00;99126.91;5077919;28;20020;-79
2023/10/19 06:33:06;;;;;;;41.88;18.50;;;;;;;6.53;100.00;99084.41;5044315;28;20047;-80
2023/10/19 06:35:33;;;;;;;39.60;20.10;;;;;;;6.85;100.00;99110.09;5096709;28;20028;-79
2023/10/19 06:38:00;;;;;;;41.47;19.40;;;;;;;7.00;100.00;99125.78;5078934;28;20477;-80
2023/10/19 06:40:28;;;;;;;34.65;18.02;;;;;;;7.04;100.00;99128.41;5096403;28;20032;-79
2023/10/19 06:42:58;;;;;;;51.20;19.90;;;;;;;7.03;100.00;99121.16;5078221;28;20032;-78
2023/10/19 06:45:29;;;;;;;38.85;18.17;;;;;;;7.13;100.00;99121.81;5097386;28;20028;-79
2023/10/19 06:47:58;;;;;;;35.75;18.85;;;;;;;7.12;100.00;99111.72;5079951;28;20032;-80
2023/10/19 06:50:25;;;;;;;36.90;19.20;;;;;;;7.17;100.00;99111.00;5079724;28;20477;-80
2023/10/19 06:52:54;;;;;;;37.95;18.42;;;;;;;7.27;100.00;99121.72;5097100;28;20430;-79
2023/10/19 06:55:28;;;;;;;43.42;20.15;;;;;;;7.24;100.00;99119.88;5096082;28;20081;-77
2023/10/19 06:57:55;;;;;;;35.25;20.02;;;;;;;7.37;100.00;99117.41;5095935;28;20489;-78
2023/10/19 07:00:23;;;;;;;35.50;17.65;;;;;;;7.41;100.00;99108.69;5078382;28;20049;-80
2023/10/19 07:02:52;;;;;;;35.63;19.20;;;;;;;7.32;100.00;99089.75;5078056;28;20060;-80
2023/10/19 07:05:29;;;;;;;39.58;18.33;;;;;;;7.43;100.00;99101.22;5095586;28;20032;-78
2023/10/19 07:08:10;;;;;;;34.38;18.00;;;;;;;7.37;100.00;99089.00;5046793;28;20089;-78
2023/10/19 07:10:36;;;;;;;40.35;18.60;;;;;;;7.38;100.00;99101.16;5092596;28;20124;-79
2023/10/19 07:13:03;;;;;;;39.17;20.13;;;;;;;7.32;100.00;99083.28;5076559;28;20143;-80
2023/10/19 07:15:30;;;;;;;38.85;19.08;;;;;;;7.34;100.00;99080.72;5092401;28;20059;-79
2023/10/19 07:18:02;;;;;;;39.17;18.58;;;;;;;7.25;100.00;99075.97;5094754;28;20031;-78
2023/10/19 07:20:31;;;;;;;40.22;18.75;;;;;;;7.35;100.00;99085.91;5091662;28;20044;-79
2023/10/19 07:26:01;;;;;;;44.22;20.10;;;;;;;7.39;100.00;99080.75;5049345;28;20086;-80
2023/10/19 07:28:27;;;;;;;37.90;20.02;;;;;;;7.41;100.00;99081.06;5095420;28;20024;-79
2023/10/19 07:30:53;;;;;;;37.58;21.52;;;;;;;7.35;100.00;99071.69;5094658;28;20034;-79
2023/10/19 07:33:24;;;;;;;39.33;20.17;;;;;;;7.37;100.00;99077.63;5060041;28;20032;-79
2023/10/19 07:35:59;;;;;;;41.10;21.55;;;;;;;7.24;100.00;99050.91;5043199;28;20540;-80
2023/10/19 07:38:28;;;;;;;42.65;21.77;;;;;;;7.42;100.00;99076.16;5062296;28;20053;-78
2023/10/19 07:40:55;;;;;;;41.67;20.88;;;;;;;7.39;100.00;99060.88;5076514;28;20020;-78
2023/10/19 07:43:25;;;;;;;48.30;22.92;;;;;;;7.25;100.00;99024.84;5094280;28;20116;-79
2023/10/19 07:45:52;;;;;;;48.20;22.73;;;;;;;7.75;100.00;99081.38;5077052;28;20032;-80
2023/10/19 07:48:19;;;;;;;40.05;20.08;;;;;;;7.46;100.00;99022.72;5094729;28;20024;-79
2023/10/19 07:50:44;;;;;;;42.75;22.67;;;;;;;7.77;100.00;99056.81;5095056;28;20482;-79
2023/10/19 07:53:10;;;;;;;36.47;21.75;;;;;;;8.05;100.00;99079.03;5094077;28;20092;-79
2023/10/19 07:55:38;;;;;;;39.05;20.58;;;;;;;8.02;100.00;99063.75;5058717;28;20036;-80
2023/10/19 07:58:10;;;;;;;38.65;19.40;;;;;;;8.14;100.00;99073.94;5075661;28;20066;-80
2023/10/19 08:00:37;;;;;;;35.63;21.52;;;;;;;7.92;100.00;99033.94;5057603;28;20036;-80
2023/10/19 08:03:05;;;;;;;43.22;21.20;;;;;;;8.06;100.00;99058.63;5091888;28;20031;-80
2023/10/19 08:05:33;;;;;;;42.85;21.33;;;;;;;8.17;100.00;99055.88;5091978;28;20042;-80
2023/10/19 08:08:24;;;;;;;36.88;19.83;;;;;;;8.20;100.00;99057.72;5059660;28;20032;-79
2023/10/19 08:10:51;;;;;;;39.78;20.80;;;;;;;8.14;100.00;99051.16;5074591;28;20047;-77
2023/10/19 08:13:26;;;;;;;51.40;21.27;;;;;;;8.17;100.00;99029.47;5092711;28;20020;-78
2023/10/19 08:15:56;;;;;;;40.65;21.83;;;;;;;7.98;100.00;99003.47;5075284;28;20036;-78
2023/10/19 08:18:21;;;;;;;43.63;20.13;;;;;;;8.20;100.00;99029.25;5076418;28;20063;-79
2023/10/19 08:20:49;;;;;;;38.15;19.33;;;;;;;7.84;100.00;98968.22;5092940;28;20078;-78
2023/10/19 08:23:16;;;;;;;42.78;21.25;;;;;;;8.22;100.00;99018.13;5094244;28;20028;-81
2023/10/19 08:25:44;;;;;;;36.17;20.02;;;;;;;7.89;100.00;98964.63;5059511;28;20055;-81
2023/10/19 08:28:10;;;;;;;36.72;20.17;;;;;;;7.81;100.00;98955.03;5093897;28;20028;-79
2023/10/19 08:30:37;;;;;;;38.13;19.48;;;;;;;7.96;100.00;98966.22;5094226;28;20103;-78
2023/10/19 08:33:03;;;;;;;36.78;19.88;;;;;;;7.91;100.00;98964.13;5094457;28;20424;-81
2023/10/19 08:35:30;;;;;;;45.05;21.15;;;;;;;8.27;100.00;99008.84;5075757;28;20101;-79
2023/10/19 08:38:00;;;;;;;39.50;21.52;;;;;;;8.06;100.00;98958.28;5093847;28;20354;-80
2023/10/19 08:40:27;;;;;;;42.60;21.35;;;;;;;8.35;100.00;98998.56;5060553;28;20024;-79
2023/10/19 08:42:55;;;;;;;40.58;20.50;;;;;;;8.36;100.00;98999.34;5056268;28;20028;-78
2023/10/19 08:45:21;;;;;;;41.63;21.80;;;;;;;8.34;100.00;98991.31;5077364;28;20036;-77
2023/10/19 08:47:48;;;;;;;40.30;22.17;;;;;;;8.49;100.00;99002.50;5078115;28;20036;-78
2023/10/19 08:50:23;;;;;;;47.53;23.08;;;;;;;8.50;100.00;99000.44;5077814;28;20036;-79
2023/10/19 08:52:54;;;;;;;45.28;22.67;;;;;;;8.46;100.00;98999.91;5093908;28;20157;-77
2023/10/19 08:55:20;;;;;;;42.65;23.10;;;;;;;8.45;100.00;98989.81;5085035;28;20028;-78
2023/10/19 08:57:48;;;;;;;46.20;22.73;;;;;;;8.29;100.00;98971.34;5076084;28;20060;-79
2023/10/19 09:00:24;;;;;;;50.20;24.42;;;;;;;8.66;100.00;99020.41;5075624;28;20074;-78
2023/10/19 09:02:59;;;;;;;38.95;22.33;;;;;;;8.67;100.00;99015.50;5076833;28;20029;-77
2023/10/19 09:05:27;;;;;;;40.45;21.42;;;;;;;8.60;100.00;98996.09;5084556;28;20035;-79
2023/10/19 09:07:54;;;;;;;41.90;22.95;;;;;;;8.64;100.00;99017.31;5096464;28;20036;-80
2023/10/19 09:10:31;;;;;;;47.38;23.52;;;;;;;8.56;100.00;98989.84;5059611;28;20394;-81
2023/10/19 09:13:02;;;;;;;48.03;24.35;;;;;;;8.62;100.00;98990.63;5089464;28;20028;-80
2023/10/19 09:15:38;;;;;;;46.22;23.58;;;;;;;8.66;100.00;99009.03;5087730;28;20044;-79
2023/10/19 09:18:22;;;;;;;40.97;22.35;;;;;;;8.61;100.00;99000.47;5074969;28;20036;-78
2023/10/19 09:21:07;;;;;;;47.10;23.42;;;;;;;8.74;100.00;99029.28;5075736;28;20103;-80
2023/10/19 09:23:36;;;;;;;38.58;21.75;;;;;;;8.84;100.00;99050.53;5061956;28;20041;-78
2023/10/19 09:26:05;;;;;;;43.00;21.80;;;;;;;8.91;100.00;99049.25;5077272;28;20040;-79
2023/10/19 09:28:33;;;;;;;40.55;21.70;;;;;;;8.99;100.00;99044.66;5077068;28;20382;-78
2023/10/19 09:31:00;;;;;;;49.20;22.48;;;;;;;8.93;100.00;99026.75;5058539;28;20446;-81
2023/10/19 09:33:27;;;;;;;41.28;20.90;;;;;;;9.10;100.00;99045.44;5058877;28;20035;-79
2023/10/19 09:36:02;;;;;;;36.88;20.45;;;;;;;9.13;100.00;99032.25;5075066;28;20032;-76
2023/10/19 09:38:28;;;;;;;38.80;19.92;;;;;;;9.10;100.00;99019.03;5077216;28;20032;-78
2023/10/19 09:40:55;;;;;;;43.00;19.88;;;;;;;9.01;100.00;99008.63;5064158;28;20566;-80
2023/10/19 09:43:37;;;;;;;42.25;20.40;;;;;;;9.05;100.00;99006.31;5075752;28;20405;-82
2023/10/19 09:46:09;;;;;;;39.45;20.33;;;;;;;9.15;100.00;99013.31;5108165;28;20032;-78
2023/10/19 09:48:45;;;;;;;37.43;20.07;;;;;;;9.20;100.00;99001.16;5058930;28;20032;-79
2023/10/19 09:51:12;;;;;;;36.85;19.08;;;;;;;9.34;100.00;99021.41;5077559;28;20101;-78
2023/10/19 09:53:38;;;;;;;37.47;20.90;;;;;;;9.14;100.00;98974.75;5092500;28;20492;-81
2023/10/19 09:56:07;;;;;;;39.38;21.00;;;;;;;9.50;100.00;99018.56;5073981;28;20058;-79
2023/10/19 09:58:38;;;;;;;38.92;20.45;;;;;;;9.42;100.00;98988.25;5075473;28;20056;-83
2023/10/19 10:01:11;;;;;;;34.28;19.38;;;;;;;9.62;100.00;99000.19;5075641;28;20105;-83
2023/10/19 10:03:45;;;;;;;36.13;19.58;;;;;;;9.61;100.00;98998.63;5077042;28;20059;-82
2023/10/19 10:06:13;;;;;;;40.35;20.08;;;;;;;9.62;100.00;98994.47;5077803;28;20036;-82
2023/10/19 10:08:47;;;;;;;39.85;20.90;;;;;;;9.62;100.00;98993.69;5080357;28;20037;-81
2023/10/19 10:11:26;;;;;;;38.28;18.85;;;;;;;9.56;100.00;98981.50;5050850;28;20048;-81
2023/10/19 10:13:52;;;;;;;37.10;19.42;;;;;;;9.58;100.00;98976.06;5077215;28;20060;-83
2023/10/19 10:16:26;;;;;;;48.28;21.50;;;;;;;9.59;100.00;98974.78;5054471;28;20128;-79
2023/10/19 10:19:01;;;;;;;44.70;22.20;;;;;;;9.47;100.00;98964.66;5068164;28;20028;-81
2023/10/19 10:21:30;;;;;;;40.10;22.60;;;;;;;9.58;100.00;98961.81;5076704;28;20024;-81
2023/10/19 10:23:59;;;;;;;38.25;20.73;;;;;;;9.59;100.00;98963.38;5076346;28;20106;-78
2023/10/19 10:27:03;;;;;;;35.20;20.77;;;;;;;9.52;100.00;98952.47;5073820;28;20032;-79
2023/10/19 10:29:31;;;;;;;39.70;21.67;;;;;;;9.47;100.00;98948.31;5075863;28;20097;-79
2023/10/19 10:31:58;;;;;;;37.08;20.30;;;;;;;9.47;100.00;98945.47;5076767;28;20040;-81
2023/10/19 10:34:42;;;;;;;37.30;21.33;;;;;;;9.45;100.00;98948.06;5059590;28;20444;-82
2023/10/19 10:37:18;;;;;;;40.78;21.20;;;;;;;9.43;100.00;98947.03;5077026;28;20102;-80
2023/10/19 10:39:45;;;;;;;38.63;20.92;;;;;;;9.36;100.00;98941.84;5077009;28;20032;-82
2023/10/19 10:42:14;;;;;;;41.25;21.88;;;;;;;9.24;100.00;98921.13;5076372;28;20035;-82
2023/10/19 10:44:48;;;;;;;37.22;21.08;;;;;;;9.19;100.00;98934.06;5077093;28;20024;-81
2023/10/19 10:47:36;;;;;;;42.33;22.27;;;;;;;9.10;100.00;98933.56;5077261;28;20090;-80
2023/10/19 10:50:03;;;;;;;41.40;22.92;;;;;;;9.13;100.00;98941.84;5060196;28;20031;-83
2023/10/19 10:52:33;;;;;;;42.28;23.42;;;;;;;8.92;100.00;98914.06;5078122;28;20085;-83
2023/10/19 10:55:18;;;;;;;45.80;24.90;;;;;;;8.91;100.00;98912.53;5084167;28;20043;-80
2023/10/19 10:57:44;;;;;;;44.67;23.65;;;;;;;9.09;100.00;98923.44;5099719;28;20043;-80
2023/10/19 11:00:15;;;;;;;42.50;24.05;;;;;;;8.95;100.00;98896.75;5057503;28;20036;-80
2023/10/19 11:02:49;;;;;;;46.08;24.50;;;;;;;9.03;100.00;98920.59;5087343;28;20024;-80
2023/10/19 11:05:18;;;;;;;44.85;25.33;;;;;;;9.02;100.00;98926.78;5069165;28;20035;-79
2023/10/19 11:08:13;;;;;;;43.30;25.20;;;;;;;9.08;100.00;98930.44;5101920;28;20098;-80
2023/10/19 11:10:44;;;;;;;45.13;25.30;;;;;;;8.99;100.00;98908.66;5100164;28;20024;-79
2023/10/19 11:13:17;;;;;;;43.38;24.33;;;;;;;8.91;100.00;98912.53;5061123;28;20052;-82
2023/10/19 11:15:53;;;;;;;45.53;24.83;;;;;;;8.93;100.00;98916.41;5078700;28;20055;-80
2023/10/19 11:18:48;;;;;;;42.70;25.90;;;;;;;8.90;100.00;98897.53;5058131;28;20036;-80
2023/10/19 11:21:18;;;;;;;45.30;24.17;;;;;;;8.83;100.00;98887.41;5076592;28;20020;-80
2023/10/19 11:23:46;;;;;;;44.70;26.05;;;;;;;8.71;100.00;98870.81;5095729;28;20038;-79
2023/10/19 11:26:14;;;;;;;50.78;25.17;;;;;;;8.64;100.00;98852.16;5095209;28;20024;-77
2023/10/19 11:28:57;;;;;;;49.50;25.13;;;;;;;8.60;100.00;98842.31;5095029;28;20024;-81
2023/10/19 11:31:24;;;;;;;48.63;26.33;;;;;;;8.56;100.00;98833.28;5095704;28;20024;-79
2023/10/19 11:33:51;;;;;;;54.80;27.50;;;;;;;8.42;100.00;98834.25;5095254;28;20461;-81
2023/10/19 11:36:20;;;;;;;50.25;26.77;;;;;;;8.51;100.00;98857.56;5077333;28;20024;-79
2023/10/19 11:38:47;;;;;;;47.42;26.83;;;;;;;8.53;100.00;98852.16;5094234;28;20107;-80
2023/10/19 11:41:15;;;;;;;51.95;27.80;;;;;;;8.52;100.00;98849.81;5060397;28;20024;-79
2023/10/19 11:43:42;;;;;;;57.80;29.63;;;;;;;8.43;100.00;98838.66;5095706;28;20068;-77
2023/10/19 11:46:08;;;;;;;51.53;28.05;;;;;;;8.56;100.00;98853.94;5060971;28;20469;-80
2023/10/19 11:48:39;;;;;;;52.80;28.75;;;;;;;8.58;100.00;98851.38;5061019;28;20027;-82
2023/10/19 11:51:06;;;;;;;56.80;29.15;;;;;;;8.66;100.00;98854.47;5095323;28;20492;-81
2023/10/19 11:53:33;;;;;;;53.13;28.77;;;;;;;8.65;100.00;98838.72;5094723;28;20031;-78
2023/10/19 11:56:08;;;;;;;48.42;27.20;;;;;;;8.67;100.00;98841.81;5077380;28;20095;-79
2023/10/19 11:58:34;;;;;;;51.28;27.02;;;;;;;8.59;100.00;98824.47;5073398;28;20052;-78